sensor_id;sensor_type;location;lat;lon;timestamp;temperature;humidity
25300;DHT22;13241;51.208;4.432;2023-08-06T00:01:15;16.00;99.90
25300;DHT22;13241;51.208;4.432;2023-08-06T00:03:42;15.90;99.90
25300;DHT22;13241;51.208;4.432;2023-08-06T00:06:09;15.90;99.90
25300;DHT22;13241;51.208;4.432;2023-08-06T00:08:36;15.90;99.90
25300;DHT22;13241;51.208;4.432;2023-08-06T00:11:03;15.90;99.90
25300;DHT22;13241;51.208;4.432;2023-08-06T00:13:30;15.90;99.90
25300;DHT22;13241;51.208;4.432;2023-08-06T00:16:09;15.90;99.90
25300;DHT22;13241;51.208;4.432;2023-08-06T00:18:36;15.90;99.90
25300;DHT22;13241;51.208;4.432;2023-08-06T00:21:03;15.80;99.90
25300;DHT22;13241;51.208;4.432;2023-08-06T00:23:30;15.80;99.90
25300;DHT22;13241;51.208;4.432;2023-08-06T00:25:57;15.80;99.90
25300;DHT22;13241;51.208;4.432;2023-08-06T00:28:24;15.80;99.90
25300;DHT22;13241;51.208;4.432;2023-08-06T00:30:54;15.80;99.90
25300;DHT22;13241;51.208;4.432;2023-08-06T00:33:22;15.80;99.90
25300;DHT22;13241;51.208;4.432;2023-08-06T00:35:49;15.80;99.90
25300;DHT22;13241;51.208;4.432;2023-08-06T00:38:16;15.80;99.90
25300;DHT22;13241;51.208;4.432;2023-08-06T00:40:42;15.80;99.90
25300;DHT22;13241;51.208;4.432;2023-08-06T00:43:10;15.80;99.90
25300;DHT22;13241;51.208;4.432;2023-08-06T00:45:37;15.90;99.90
25300;DHT22;13241;51.208;4.432;2023-08-06T00:48:05;15.90;99.90
25300;DHT22;13241;51.208;4.432;2023-08-06T00:50:33;15.90;99.90
25300;DHT22;13241;51.208;4.432;2023-08-06T00:53:01;15.90;99.90
25300;DHT22;13241;51.208;4.432;2023-08-06T00:55:29;15.90;99.90
25300;DHT22;13241;51.208;4.432;2023-08-06T00:57:56;16.00;99.90
25300;DHT22;13241;51.208;4.432;2023-08-06T01:00:24;16.00;99.90
25300;DHT22;13241;51.208;4.432;2023-08-06T01:02:52;16.00;99.90
25300;DHT22;13241;51.208;4.432;2023-08-06T01:05:21;16.00;99.90
25300;DHT22;13241;51.208;4.432;2023-08-06T01:10:39;16.10;99.90
25300;DHT22;13241;51.208;4.432;2023-08-06T01:16:17;16.10;99.90
25300;DHT22;13241;51.208;4.432;2023-08-06T01:18:47;16.10;99.90
25300;DHT22;13241;51.208;4.432;2023-08-06T01:21:17;16.10;99.90
25300;DHT22;13241;51.208;4.432;2023-08-06T01:23:45;16.10;99.90
25300;DHT22;13241;51.208;4.432;2023-08-06T01:26:40;16.20;99.90
25300;DHT22;13241;51.208;4.432;2023-08-06T01:29:17;16.10;99.90
25300;DHT22;13241;51.208;4.432;2023-08-06T01:31:48;16.10;99.90
25300;DHT22;13241;51.208;4.432;2023-08-06T01:34:21;16.10;99.90
25300;DHT22;13241;51.208;4.432;2023-08-06T01:36:49;16.10;99.90
25300;DHT22;13241;51.208;4.432;2023-08-06T01:39:16;16.20;99.90
25300;DHT22;13241;51.208;4.432;2023-08-06T01:41:43;16.10;99.90
25300;DHT22;13241;51.208;4.432;2023-08-06T01:44:10;16.10;99.90
25300;DHT22;13241;51.208;4.432;2023-08-06T01:46:37;16.20;99.90
25300;DHT22;13241;51.208;4.432;2023-08-06T01:49:04;16.10;99.90
25300;DHT22;13241;51.208;4.432;2023-08-06T01:51:31;16.10;99.90
25300;DHT22;13241;51.208;4.432;2023-08-06T01:53:59;16.10;99.90
25300;DHT22;13241;51.208;4.432;2023-08-06T01:56:25;16.10;99.90
25300;DHT22;13241;51.208;4.432;2023-08-06T01:58:52;16.20;99.90
25300;DHT22;13241;51.208;4.432;2023-08-06T02:01:19;16.10;99.90
25300;DHT22;13241;51.208;4.432;2023-08-06T02:03:46;16.20;99.90
25300;DHT22;13241;51.208;4.432;2023-08-06T02:06:13;16.20;99.90
25300;DHT22;13241;51.208;4.432;2023-08-06T02:08:41;16.20;99.90
25300;DHT22;13241;51.208;4.432;2023-08-06T02:11:08;16.20;99.90
25300;DHT22;13241;51.208;4.432;2023-08-06T02:13:34;16.20;99.90
25300;DHT22;13241;51.208;4.432;2023-08-06T02:16:01;16.10;99.90
25300;DHT22;13241;51.208;4.432;2023-08-06T02:18:29;16.20;99.90
25300;DHT22;13241;51.208;4.432;2023-08-06T02:20:57;16.10;99.90
25300;DHT22;13241;51.208;4.432;2023-08-06T02:23:25;16.20;99.90
25300;DHT22;13241;51.208;4.432;2023-08-06T02:26:02;16.20;99.90
25300;DHT22;13241;51.208;4.432;2023-08-06T02:28:30;16.20;99.90
25300;DHT22;13241;51.208;4.432;2023-08-06T02:30:57;16.10;99.90
25300;DHT22;13241;51.208;4.432;2023-08-06T02:33:24;16.10;99.90
25300;DHT22;13241;51.208;4.432;2023-08-06T02:35:54;16.20;99.90
25300;DHT22;13241;51.208;4.432;2023-08-06T02:38:25;16.10;99.90
25300;DHT22;13241;51.208;4.432;2023-08-06T02:40:51;16.10;99.90
25300;DHT22;13241;51.208;4.432;2023-08-06T02:43:18;16.10;99.90
25300;DHT22;13241;51.208;4.432;2023-08-06T02:45:45;16.10;99.90
25300;DHT22;13241;51.208;4.432;2023-08-06T02:48:12;16.10;99.90
25300;DHT22;13241;51.208;4.432;2023-08-06T02:50:41;16.00;99.90
25300;DHT22;13241;51.208;4.432;2023-08-06T02:53:09;16.10;99.90
25300;DHT22;13241;51.208;4.432;2023-08-06T02:55:36;16.00;99.90
25300;DHT22;13241;51.208;4.432;2023-08-06T02:58:11;15.90;99.90
25300;DHT22;13241;51.208;4.432;2023-08-06T03:00:44;16.00;99.90
25300;DHT22;13241;51.208;4.432;2023-08-06T03:03:12;15.90;99.90
25300;DHT22;13241;51.208;4.432;2023-08-06T03:05:53;16.00;99.90
25300;DHT22;13241;51.208;4.432;2023-08-06T03:08:31;16.00;99.90
25300;DHT22;13241;51.208;4.432;2023-08-06T03:10:58;16.00;99.90
25300;DHT22;13241;51.208;4.432;2023-08-06T03:13:25;16.00;99.90
25300;DHT22;13241;51.208;4.432;2023-08-06T03:15:59;16.00;99.90
25300;DHT22;13241;51.208;4.432;2023-08-06T03:18:28;16.00;99.90
25300;DHT22;13241;51.208;4.432;2023-08-06T03:20:57;15.90;99.90
25300;DHT22;13241;51.208;4.432;2023-08-06T03:23:28;15.90;99.90
25300;DHT22;13241;51.208;4.432;2023-08-06T03:25:55;15.90;99.90
25300;DHT22;13241;51.208;4.432;2023-08-06T03:28:22;15.90;99.90
25300;DHT22;13241;51.208;4.432;2023-08-06T03:30:59;15.90;99.90
25300;DHT22;13241;51.208;4.432;2023-08-06T03:33:27;15.90;99.90
25300;DHT22;13241;51.208;4.432;2023-08-06T03:35:55;15.90;99.90
25300;DHT22;13241;51.208;4.432;2023-08-06T03:38:22;15.80;99.90
25300;DHT22;13241;51.208;4.432;2023-08-06T03:40:49;15.90;99.90
25300;DHT22;13241;51.208;4.432;2023-08-06T03:43:16;15.80;99.90
25300;DHT22;13241;51.208;4.432;2023-08-06T03:45:44;15.80;99.90
25300;DHT22;13241;51.208;4.432;2023-08-06T03:48:12;15.70;99.90
25300;DHT22;13241;51.208;4.432;2023-08-06T03:50:39;15.70;99.90
25300;DHT22;13241;51.208;4.432;2023-08-06T03:53:09;15.60;99.90
25300;DHT22;13241;51.208;4.432;2023-08-06T03:55:36;15.60;99.90
25300;DHT22;13241;51.208;4.432;2023-08-06T03:58:03;15.60;99.90
25300;DHT22;13241;51.208;4.432;2023-08-06T04:00:30;15.50;99.90
25300;DHT22;13241;51.208;4.432;2023-08-06T04:02:57;15.50;99.90
25300;DHT22;13241;51.208;4.432;2023-08-06T04:05:24;15.50;99.90
25300;DHT22;13241;51.208;4.432;2023-08-06T04:07:52;15.40;99.90
25300;DHT22;13241;51.208;4.432;2023-08-06T04:10:19;15.40;99.90
25300;DHT22;13241;51.208;4.432;2023-08-06T04:12:46;15.40;99.90
25300;DHT22;13241;51.208;4.432;2023-08-06T04:15:13;15.40;99.90
25300;DHT22;13241;51.208;4.432;2023-08-06T04:17:40;15.40;99.90
25300;DHT22;13241;51.208;4.432;2023-08-06T04:20:07;15.40;99.90
25300;DHT22;13241;51.208;4.432;2023-08-06T04:22:34;15.40;99.90
25300;DHT22;13241;51.208;4.432;2023-08-06T04:25:01;15.30;99.90
25300;DHT22;13241;51.208;4.432;2023-08-06T04:27:28;15.20;99.90
25300;DHT22;13241;51.208;4.432;2023-08-06T04:29:56;15.20;99.90
25300;DHT22;13241;51.208;4.432;2023-08-06T04:32:23;15.10;99.90
25300;DHT22;13241;51.208;4.432;2023-08-06T04:34:55;15.10;99.90
25300;DHT22;13241;51.208;4.432;2023-08-06T04:37:23;14.90;99.90
25300;DHT22;13241;51.208;4.432;2023-08-06T04:39:49;14.70;99.90
25300;DHT22;13241;51.208;4.432;2023-08-06T04:42:18;14.50;99.90
25300;DHT22;13241;51.208;4.432;2023-08-06T04:44:45;14.40;99.90
25300;DHT22;13241;51.208;4.432;2023-08-06T04:47:12;14.40;99.90
25300;DHT22;13241;51.208;4.432;2023-08-06T04:49:39;14.40;99.90
25300;DHT22;13241;51.208;4.432;2023-08-06T04:52:06;14.40;99.90
25300;DHT22;13241;51.208;4.432;2023-08-06T04:54:33;14.40;99.90
25300;DHT22;13241;51.208;4.432;2023-08-06T04:57:00;14.50;99.90
25300;DHT22;13241;51.208;4.432;2023-08-06T04:59:27;14.50;99.90
25300;DHT22;13241;51.208;4.432;2023-08-06T05:01:54;14.60;99.90
25300;DHT22;13241;51.208;4.432;2023-08-06T05:04:22;14.70;99.90
25300;DHT22;13241;51.208;4.432;2023-08-06T05:06:48;14.80;99.90
25300;DHT22;13241;51.208;4.432;2023-08-06T05:09:15;14.80;99.90
25300;DHT22;13241;51.208;4.432;2023-08-06T05:11:42;14.80;99.90
25300;DHT22;13241;51.208;4.432;2023-08-06T05:14:09;14.80;99.90
25300;DHT22;13241;51.208;4.432;2023-08-06T05:16:36;14.80;99.90
25300;DHT22;13241;51.208;4.432;2023-08-06T05:19:03;14.80;99.90
25300;DHT22;13241;51.208;4.432;2023-08-06T05:21:30;14.80;99.90
25300;DHT22;13241;51.208;4.432;2023-08-06T05:23:56;14.80;99.90
25300;DHT22;13241;51.208;4.432;2023-08-06T05:26:23;14.80;99.90
25300;DHT22;13241;51.208;4.432;2023-08-06T05:28:50;14.70;99.90
25300;DHT22;13241;51.208;4.432;2023-08-06T05:33:45;14.70;99.90
25300;DHT22;13241;51.208;4.432;2023-08-06T05:36:11;14.70;99.90
25300;DHT22;13241;51.208;4.432;2023-08-06T05:38:38;14.70;99.90
25300;DHT22;13241;51.208;4.432;2023-08-06T05:41:05;14.70;99.90
25300;DHT22;13241;51.208;4.432;2023-08-06T05:43:32;14.70;99.90
25300;DHT22;13241;51.208;4.432;2023-08-06T05:45:59;14.70;99.90
25300;DHT22;13241;51.208;4.432;2023-08-06T05:48:26;14.70;99.90
25300;DHT22;13241;51.208;4.432;2023-08-06T05:50:54;14.70;99.90
25300;DHT22;13241;51.208;4.432;2023-08-06T05:53:21;14.70;99.90
25300;DHT22;13241;51.208;4.432;2023-08-06T05:55:48;14.70;99.90
25300;DHT22;13241;51.208;4.432;2023-08-06T05:58:15;14.70;99.90
25300;DHT22;13241;51.208;4.432;2023-08-06T06:00:42;14.70;99.90
25300;DHT22;13241;51.208;4.432;2023-08-06T06:03:09;14.70;99.90
25300;DHT22;13241;51.208;4.432;2023-08-06T06:05:38;14.70;99.90
25300;DHT22;13241;51.208;4.432;2023-08-06T06:08:05;14.70;99.90
25300;DHT22;13241;51.208;4.432;2023-08-06T06:10:32;14.70;99.90
25300;DHT22;13241;51.208;4.432;2023-08-06T06:12:59;14.80;99.90
25300;DHT22;13241;51.208;4.432;2023-08-06T06:15:26;14.80;99.90
25300;DHT22;13241;51.208;4.432;2023-08-06T06:17:53;14.80;99.90
25300;DHT22;13241;51.208;4.432;2023-08-06T06:20:20;15.00;99.90
25300;DHT22;13241;51.208;4.432;2023-08-06T06:22:47;14.90;99.90
25300;DHT22;13241;51.208;4.432;2023-08-06T06:25:14;14.90;99.90
25300;DHT22;13241;51.208;4.432;2023-08-06T06:27:41;14.90;99.90
25300;DHT22;13241;51.208;4.432;2023-08-06T06:30:08;14.90;99.90
25300;DHT22;13241;51.208;4.432;2023-08-06T06:32:35;14.90;99.90
25300;DHT22;13241;51.208;4.432;2023-08-06T06:35:02;15.00;99.90
25300;DHT22;13241;51.208;4.432;2023-08-06T06:37:29;15.00;99.90
25300;DHT22;13241;51.208;4.432;2023-08-06T06:39:56;15.00;99.90
25300;DHT22;13241;51.208;4.432;2023-08-06T06:42:23;15.00;99.90
25300;DHT22;13241;51.208;4.432;2023-08-06T06:44:57;15.00;99.90
25300;DHT22;13241;51.208;4.432;2023-08-06T06:47:24;15.00;99.90
25300;DHT22;13241;51.208;4.432;2023-08-06T06:49:51;15.00;99.90
25300;DHT22;13241;51.208;4.432;2023-08-06T06:52:18;15.10;99.90
25300;DHT22;13241;51.208;4.432;2023-08-06T06:54:45;15.20;99.90
25300;DHT22;13241;51.208;4.432;2023-08-06T06:57:12;15.20;99.90
25300;DHT22;13241;51.208;4.432;2023-08-06T06:59:39;15.20;99.90
25300;DHT22;13241;51.208;4.432;2023-08-06T07:02:06;15.30;99.90
25300;DHT22;13241;51.208;4.432;2023-08-06T07:04:33;15.30;99.90
25300;DHT22;13241;51.208;4.432;2023-08-06T07:07:00;15.50;99.90
25300;DHT22;13241;51.208;4.432;2023-08-06T07:09:27;15.50;99.90
25300;DHT22;13241;51.208;4.432;2023-08-06T07:11:53;15.60;99.90
25300;DHT22;13241;51.208;4.432;2023-08-06T07:14:21;15.70;99.90
25300;DHT22;13241;51.208;4.432;2023-08-06T07:16:48;15.60;99.90
25300;DHT22;13241;51.208;4.432;2023-08-06T07:19:15;15.70;99.90
25300;DHT22;13241;51.208;4.432;2023-08-06T07:21:42;15.80;99.90
25300;DHT22;13241;51.208;4.432;2023-08-06T07:24:09;15.80;99.90
25300;DHT22;13241;51.208;4.432;2023-08-06T07:26:36;15.80;99.90
25300;DHT22;13241;51.208;4.432;2023-08-06T07:29:03;15.80;99.90
25300;DHT22;13241;51.208;4.432;2023-08-06T07:31:30;15.80;99.90
25300;DHT22;13241;51.208;4.432;2023-08-06T07:33:57;15.80;99.90
25300;DHT22;13241;51.208;4.432;2023-08-06T07:36:24;15.70;99.90
25300;DHT22;13241;51.208;4.432;2023-08-06T07:38:51;15.60;99.90
25300;DHT22;13241;51.208;4.432;2023-08-06T07:41:23;15.60;99.90
25300;DHT22;13241;51.208;4.432;2023-08-06T07:43:50;15.50;99.90
25300;DHT22;13241;51.208;4.432;2023-08-06T07:46:17;15.40;99.90
25300;DHT22;13241;51.208;4.432;2023-08-06T07:48:44;15.40;99.90
25300;DHT22;13241;51.208;4.432;2023-08-06T07:51:11;15.50;99.90
25300;DHT22;13241;51.208;4.432;2023-08-06T07:53:38;15.50;99.90
25300;DHT22;13241;51.208;4.432;2023-08-06T07:56:05;15.50;99.90
25300;DHT22;13241;51.208;4.432;2023-08-06T07:58:32;15.70;99.90
25300;DHT22;13241;51.208;4.432;2023-08-06T08:00:59;15.90;99.90
25300;DHT22;13241;51.208;4.432;2023-08-06T08:03:29;15.90;99.90
25300;DHT22;13241;51.208;4.432;2023-08-06T08:05:56;16.10;99.90
25300;DHT22;13241;51.208;4.432;2023-08-06T08:08:25;16.20;99.90
25300;DHT22;13241;51.208;4.432;2023-08-06T08:10:52;16.30;99.90
25300;DHT22;13241;51.208;4.432;2023-08-06T08:13:18;16.40;99.90
25300;DHT22;13241;51.208;4.432;2023-08-06T08:15:46;16.40;99.90
25300;DHT22;13241;51.208;4.432;2023-08-06T08:18:13;16.50;99.90
25300;DHT22;13241;51.208;4.432;2023-08-06T08:20:39;16.40;99.90
25300;DHT22;13241;51.208;4.432;2023-08-06T08:23:06;16.40;99.90
25300;DHT22;13241;51.208;4.432;2023-08-06T08:25:33;16.40;99.90
25300;DHT22;13241;51.208;4.432;2023-08-06T08:28:00;16.50;99.90
25300;DHT22;13241;51.208;4.432;2023-08-06T08:30:27;16.60;99.90
25300;DHT22;13241;51.208;4.432;2023-08-06T08:32:54;16.70;99.90
25300;DHT22;13241;51.208;4.432;2023-08-06T08:35:21;16.80;99.90
25300;DHT22;13241;51.208;4.432;2023-08-06T08:37:48;17.00;99.90
25300;DHT22;13241;51.208;4.432;2023-08-06T08:40:15;17.00;99.90
25300;DHT22;13241;51.208;4.432;2023-08-06T08:42:43;17.00;99.90
25300;DHT22;13241;51.208;4.432;2023-08-06T08:45:14;17.10;99.90
25300;DHT22;13241;51.208;4.432;2023-08-06T08:47:42;17.10;99.90
25300;DHT22;13241;51.208;4.432;2023-08-06T08:50:14;17.20;99.90
25300;DHT22;13241;51.208;4.432;2023-08-06T08:52:42;17.30;99.90
25300;DHT22;13241;51.208;4.432;2023-08-06T08:55:15;17.40;99.90
25300;DHT22;13241;51.208;4.432;2023-08-06T08:57:42;17.40;99.90
25300;DHT22;13241;51.208;4.432;2023-08-06T09:00:09;17.40;99.90
25300;DHT22;13241;51.208;4.432;2023-08-06T09:02:37;17.40;99.90
25300;DHT22;13241;51.208;4.432;2023-08-06T09:05:05;17.30;99.90
25300;DHT22;13241;51.208;4.432;2023-08-06T09:07:35;17.10;99.90
25300;DHT22;13241;51.208;4.432;2023-08-06T09:10:07;16.90;99.90
25300;DHT22;13241;51.208;4.432;2023-08-06T09:12:37;16.80;99.90
25300;DHT22;13241;51.208;4.432;2023-08-06T09:15:04;16.90;99.90
25300;DHT22;13241;51.208;4.432;2023-08-06T09:17:31;16.80;99.90
25300;DHT22;13241;51.208;4.432;2023-08-06T09:19:58;16.70;99.90
25300;DHT22;13241;51.208;4.432;2023-08-06T09:22:33;16.80;99.90
25300;DHT22;13241;51.208;4.432;2023-08-06T09:25:01;16.70;99.90
25300;DHT22;13241;51.208;4.432;2023-08-06T09:27:30;16.70;99.90
25300;DHT22;13241;51.208;4.432;2023-08-06T09:29:57;16.70;99.90
25300;DHT22;13241;51.208;4.432;2023-08-06T09:32:24;16.60;99.90
25300;DHT22;13241;51.208;4.432;2023-08-06T09:34:55;16.50;99.90
25300;DHT22;13241;51.208;4.432;2023-08-06T09:37:23;16.40;99.90
25300;DHT22;13241;51.208;4.432;2023-08-06T09:39:50;16.40;99.90
25300;DHT22;13241;51.208;4.432;2023-08-06T09:42:18;16.40;99.90
25300;DHT22;13241;51.208;4.432;2023-08-06T09:44:45;16.50;99.90
25300;DHT22;13241;51.208;4.432;2023-08-06T09:47:12;16.60;99.90
25300;DHT22;13241;51.208;4.432;2023-08-06T09:49:42;16.70;99.90
25300;DHT22;13241;51.208;4.432;2023-08-06T09:52:12;16.40;99.90
25300;DHT22;13241;51.208;4.432;2023-08-06T09:54:39;16.10;99.90
25300;DHT22;13241;51.208;4.432;2023-08-06T09:57:06;15.80;99.90
25300;DHT22;13241;51.208;4.432;2023-08-06T09:59:33;15.70;99.90
25300;DHT22;13241;51.208;4.432;2023-08-06T10:02:02;15.60;99.90
25300;DHT22;13241;51.208;4.432;2023-08-06T10:04:34;15.50;99.90
25300;DHT22;13241;51.208;4.432;2023-08-06T10:07:07;15.40;99.90
25300;DHT22;13241;51.208;4.432;2023-08-06T10:09:35;15.40;99.90
25300;DHT22;13241;51.208;4.432;2023-08-06T10:12:02;15.30;99.90
25300;DHT22;13241;51.208;4.432;2023-08-06T10:14:34;15.40;99.90
25300;DHT22;13241;51.208;4.432;2023-08-06T10:17:03;15.40;99.90
25300;DHT22;13241;51.208;4.432;2023-08-06T10:19:31;15.50;99.90
25300;DHT22;13241;51.208;4.432;2023-08-06T10:22:15;15.60;99.90
25300;DHT22;13241;51.208;4.432;2023-08-06T10:24:57;15.70;99.90
25300;DHT22;13241;51.208;4.432;2023-08-06T10:27:53;15.80;99.90
25300;DHT22;13241;51.208;4.432;2023-08-06T10:30:29;15.80;99.90
25300;DHT22;13241;51.208;4.432;2023-08-06T10:33:03;15.80;99.90
25300;DHT22;13241;51.208;4.432;2023-08-06T10:35:47;15.80;99.90
25300;DHT22;13241;51.208;4.432;2023-08-06T10:38:22;15.80;99.90
25300;DHT22;13241;51.208;4.432;2023-08-06T10:41:01;15.80;99.90
25300;DHT22;13241;51.208;4.432;2023-08-06T10:43:35;16.00;99.90
25300;DHT22;13241;51.208;4.432;2023-08-06T10:46:03;16.10;99.90
25300;DHT22;13241;51.208;4.432;2023-08-06T10:48:38;16.10;99.90
25300;DHT22;13241;51.208;4.432;2023-08-06T10:51:10;16.10;99.90
25300;DHT22;13241;51.208;4.432;2023-08-06T10:53:38;16.10;99.90
25300;DHT22;13241;51.208;4.432;2023-08-06T10:56:15;16.00;99.90
25300;DHT22;13241;51.208;4.432;2023-08-06T10:58:46;16.10;99.90
25300;DHT22;13241;51.208;4.432;2023-08-06T11:01:14;16.20;99.90
25300;DHT22;13241;51.208;4.432;2023-08-06T11:03:43;16.40;99.90
25300;DHT22;13241;51.208;4.432;2023-08-06T11:06:10;16.50;99.90
25300;DHT22;13241;51.208;4.432;2023-08-06T11:08:40;16.60;99.90
25300;DHT22;13241;51.208;4.432;2023-08-06T11:11:14;16.80;99.90
25300;DHT22;13241;51.208;4.432;2023-08-06T11:13:49;16.90;99.90
25300;DHT22;13241;51.208;4.432;2023-08-06T11:16:23;17.10;99.90
25300;DHT22;13241;51.208;4.432;2023-08-06T11:18:53;17.20;99.90
25300;DHT22;13241;51.208;4.432;2023-08-06T11:21:21;17.30;99.90
25300;DHT22;13241;51.208;4.432;2023-08-06T11:23:49;17.20;99.90
25300;DHT22;13241;51.208;4.432;2023-08-06T11:26:20;17.30;99.90
25300;DHT22;13241;51.208;4.432;2023-08-06T11:28:48;17.30;99.90
25300;DHT22;13241;51.208;4.432;2023-08-06T11:31:19;17.40;99.90
25300;DHT22;13241;51.208;4.432;2023-08-06T11:33:47;17.40;99.90
25300;DHT22;13241;51.208;4.432;2023-08-06T11:36:14;17.40;99.90
25300;DHT22;13241;51.208;4.432;2023-08-06T11:38:41;17.40;99.90
25300;DHT22;13241;51.208;4.432;2023-08-06T11:41:08;17.30;99.90
25300;DHT22;13241;51.208;4.432;2023-08-06T11:43:34;17.10;99.90
25300;DHT22;13241;51.208;4.432;2023-08-06T11:46:01;16.90;99.90
25300;DHT22;13241;51.208;4.432;2023-08-06T11:48:28;16.80;99.90
25300;DHT22;13241;51.208;4.432;2023-08-06T11:50:55;16.70;99.90
25300;DHT22;13241;51.208;4.432;2023-08-06T11:53:27;16.60;99.90
25300;DHT22;13241;51.208;4.432;2023-08-06T11:55:55;16.60;99.90
25300;DHT22;13241;51.208;4.432;2023-08-06T11:58:22;16.50;99.90
25300;DHT22;13241;51.208;4.432;2023-08-06T12:00:49;16.40;99.90
25300;DHT22;13241;51.208;4.432;2023-08-06T12:03:19;16.30;99.90
25300;DHT22;13241;51.208;4.432;2023-08-06T12:05:46;16.50;99.90
25300;DHT22;13241;51.208;4.432;2023-08-06T12:08:13;16.60;99.90
25300;DHT22;13241;51.208;4.432;2023-08-06T12:10:40;16.50;99.90
25300;DHT22;13241;51.208;4.432;2023-08-06T12:13:07;16.40;99.90
25300;DHT22;13241;51.208;4.432;2023-08-06T12:15:34;16.30;99.90
25300;DHT22;13241;51.208;4.432;2023-08-06T12:18:01;16.30;99.90
25300;DHT22;13241;51.208;4.432;2023-08-06T12:20:28;16.30;99.90
25300;DHT22;13241;51.208;4.432;2023-08-06T12:22:55;16.30;99.90
25300;DHT22;13241;51.208;4.432;2023-08-06T12:25:22;16.40;99.90
25300;DHT22;13241;51.208;4.432;2023-08-06T12:27:50;16.40;99.90
25300;DHT22;13241;51.208;4.432;2023-08-06T12:30:17;16.50;99.90
25300;DHT22;13241;51.208;4.432;2023-08-06T12:32:44;16.60;99.90
25300;DHT22;13241;51.208;4.432;2023-08-06T12:35:11;16.80;99.90
25300;DHT22;13241;51.208;4.432;2023-08-06T12:37:38;16.80;99.90
25300;DHT22;13241;51.208;4.432;2023-08-06T12:40:06;16.80;99.90
25300;DHT22;13241;51.208;4.432;2023-08-06T12:42:53;16.60;99.90
25300;DHT22;13241;51.208;4.432;2023-08-06T12:45:20;16.40;99.90
25300;DHT22;13241;51.208;4.432;2023-08-06T12:47:49;16.40;99.90
25300;DHT22;13241;51.208;4.432;2023-08-06T12:50:17;16.20;99.90
25300;DHT22;13241;51.208;4.432;2023-08-06T12:52:45;16.10;99.90
25300;DHT22;13241;51.208;4.432;2023-08-06T12:55:12;16.00;99.90
25300;DHT22;13241;51.208;4.432;2023-08-06T12:57:39;15.90;99.90
25300;DHT22;13241;51.208;4.432;2023-08-06T13:00:24;15.80;99.90
25300;DHT22;13241;51.208;4.432;2023-08-06T13:02:51;15.60;99.90
25300;DHT22;13241;51.208;4.432;2023-08-06T13:05:18;15.50;99.90
25300;DHT22;13241;51.208;4.432;2023-08-06T13:07:45;15.40;99.90
25300;DHT22;13241;51.208;4.432;2023-08-06T13:10:11;15.40;99.90
25300;DHT22;13241;51.208;4.432;2023-08-06T13:12:38;15.40;99.90
25300;DHT22;13241;51.208;4.432;2023-08-06T13:15:06;15.50;99.90
25300;DHT22;13241;51.208;4.432;2023-08-06T13:17:33;15.50;99.90
25300;DHT22;13241;51.208;4.432;2023-08-06T13:20:00;15.50;99.90
25300;DHT22;13241;51.208;4.432;2023-08-06T13:22:27;15.40;99.90
25300;DHT22;13241;51.208;4.432;2023-08-06T13:24:54;15.30;99.90
25300;DHT22;13241;51.208;4.432;2023-08-06T13:27:21;15.20;99.90
25300;DHT22;13241;51.208;4.432;2023-08-06T13:29:48;15.10;99.90
25300;DHT22;13241;51.208;4.432;2023-08-06T13:32:14;15.00;99.90
25300;DHT22;13241;51.208;4.432;2023-08-06T13:34:41;15.00;99.90
25300;DHT22;13241;51.208;4.432;2023-08-06T13:37:08;14.80;99.90
25300;DHT22;13241;51.208;4.432;2023-08-06T13:39:35;14.80;99.90
25300;DHT22;13241;51.208;4.432;2023-08-06T13:42:02;14.90;99.90
25300;DHT22;13241;51.208;4.432;2023-08-06T13:44:29;14.90;99.90
25300;DHT22;13241;51.208;4.432;2023-08-06T13:46:56;14.90;99.90
25300;DHT22;13241;51.208;4.432;2023-08-06T13:49:23;14.90;99.90
25300;DHT22;13241;51.208;4.432;2023-08-06T13:51:50;14.90;99.90
25300;DHT22;13241;51.208;4.432;2023-08-06T13:54:17;14.90;99.90
25300;DHT22;13241;51.208;4.432;2023-08-06T13:56:44;14.90;99.90
25300;DHT22;13241;51.208;4.432;2023-08-06T13:59:11;14.90;99.90
25300;DHT22;13241;51.208;4.432;2023-08-06T14:01:40;14.80;99.90
25300;DHT22;13241;51.208;4.432;2023-08-06T14:04:16;14.80;99.90
25300;DHT22;13241;51.208;4.432;2023-08-06T14:06:43;14.90;99.90
25300;DHT22;13241;51.208;4.432;2023-08-06T14:09:10;14.80;99.90
25300;DHT22;13241;51.208;4.432;2023-08-06T14:11:40;14.80;99.90
25300;DHT22;13241;51.208;4.432;2023-08-06T14:14:07;14.80;99.90
25300;DHT22;13241;51.208;4.432;2023-08-06T14:16:34;14.90;99.90
25300;DHT22;13241;51.208;4.432;2023-08-06T14:19:02;14.90;99.90
25300;DHT22;13241;51.208;4.432;2023-08-06T14:21:29;14.90;99.90
25300;DHT22;13241;51.208;4.432;2023-08-06T14:23:55;15.00;99.90
25300;DHT22;13241;51.208;4.432;2023-08-06T14:26:22;15.00;99.90
25300;DHT22;13241;51.208;4.432;2023-08-06T14:28:50;15.10;99.90
25300;DHT22;13241;51.208;4.432;2023-08-06T14:31:20;15.10;99.90
25300;DHT22;13241;51.208;4.432;2023-08-06T14:33:48;15.10;99.90
25300;DHT22;13241;51.208;4.432;2023-08-06T14:36:15;15.30;99.90
25300;DHT22;13241;51.208;4.432;2023-08-06T14:38:41;15.50;99.90
25300;DHT22;13241;51.208;4.432;2023-08-06T14:41:24;15.70;99.90
25300;DHT22;13241;51.208;4.432;2023-08-06T14:43:51;15.90;99.90
25300;DHT22;13241;51.208;4.432;2023-08-06T14:46:18;15.90;99.90
25300;DHT22;13241;51.208;4.432;2023-08-06T14:48:45;16.00;99.90
25300;DHT22;13241;51.208;4.432;2023-08-06T14:51:12;16.10;99.90
25300;DHT22;13241;51.208;4.432;2023-08-06T14:53:39;16.00;99.90
25300;DHT22;13241;51.208;4.432;2023-08-06T14:56:06;15.90;99.90
25300;DHT22;13241;51.208;4.432;2023-08-06T14:58:33;15.80;99.90
25300;DHT22;13241;51.208;4.432;2023-08-06T15:01:00;15.70;99.90
25300;DHT22;13241;51.208;4.432;2023-08-06T15:03:27;15.60;99.90
25300;DHT22;13241;51.208;4.432;2023-08-06T15:05:55;15.60;99.90
25300;DHT22;13241;51.208;4.432;2023-08-06T15:08:22;15.60;99.90
25300;DHT22;13241;51.208;4.432;2023-08-06T15:10:52;15.50;99.90
25300;DHT22;13241;51.208;4.432;2023-08-06T15:13:20;15.40;99.90
25300;DHT22;13241;51.208;4.432;2023-08-06T15:15:49;15.30;99.90
25300;DHT22;13241;51.208;4.432;2023-08-06T15:18:16;15.20;99.90
25300;DHT22;13241;51.208;4.432;2023-08-06T15:20:43;15.10;99.90
25300;DHT22;13241;51.208;4.432;2023-08-06T15:23:10;15.00;99.90
25300;DHT22;13241;51.208;4.432;2023-08-06T15:25:37;14.90;99.90
25300;DHT22;13241;51.208;4.432;2023-08-06T15:28:04;14.90;99.90
25300;DHT22;13241;51.208;4.432;2023-08-06T15:30:32;14.90;99.90
25300;DHT22;13241;51.208;4.432;2023-08-06T15:32:59;14.90;99.90
25300;DHT22;13241;51.208;4.432;2023-08-06T15:35:27;15.00;99.90
25300;DHT22;13241;51.208;4.432;2023-08-06T15:37:54;15.10;99.90
25300;DHT22;13241;51.208;4.432;2023-08-06T15:40:21;15.20;99.90
25300;DHT22;13241;51.208;4.432;2023-08-06T15:42:49;15.40;99.90
25300;DHT22;13241;51.208;4.432;2023-08-06T15:45:15;15.50;99.90